createdAt,value
2023-07-03T00:00:19.367Z,25.41
2023-07-03T00:02:52.715Z,25.44
2023-07-03T00:05:21.242Z,25.12
2023-07-03T00:07:48.711Z,25.37
2023-07-03T00:10:17.148Z,25.40
2023-07-03T00:12:45.613Z,25.15
2023-07-03T00:15:13.097Z,24.38
2023-07-03T00:17:40.921Z,25.24
2023-07-03T00:20:12.654Z,25.30
2023-07-03T00:22:39.926Z,25.01
2023-07-03T00:25:08.202Z,25.23
2023-07-03T00:27:35.329Z,25.33
2023-07-03T00:30:03.340Z,25.31
2023-07-03T00:32:31.384Z,25.39
2023-07-03T00:34:58.538Z,25.21
2023-07-03T00:37:26.040Z,24.99
2023-07-03T00:39:53.710Z,25.37
2023-07-03T00:42:24.565Z,25.50
2023-07-03T00:44:51.688Z,25.47
2023-07-03T00:47:19.003Z,25.23
2023-07-03T00:49:46.383Z,25.46
2023-07-03T00:52:14.753Z,25.24
2023-07-03T00:54:42.146Z,25.46
2023-07-03T00:57:14.460Z,25.39
2023-07-03T00:59:41.704Z,25.25
2023-07-03T01:02:21.093Z,25.35
2023-07-03T01:05:05.330Z,25.21
2023-07-03T01:07:35.957Z,25.31
2023-07-03T01:10:16.097Z,25.32
2023-07-03T01:12:47.141Z,25.28
2023-07-03T01:15:19.023Z,25.26
2023-07-03T01:17:49.006Z,25.29
2023-07-03T01:20:18.863Z,25.27
2023-07-03T01:22:54.834Z,25.30
2023-07-03T01:25:25.784Z,25.27
2023-07-03T01:27:54.430Z,24.99
2023-07-03T01:30:22.702Z,25.15
2023-07-03T01:32:53.739Z,24.79
2023-07-03T01:35:21.437Z,24.44
2023-07-03T01:37:53.032Z,24.87
2023-07-03T01:40:24.655Z,24.94
2023-07-03T01:42:54.659Z,24.95
2023-07-03T01:45:22.019Z,24.91
2023-07-03T01:47:49.392Z,24.92
2023-07-03T01:50:21.913Z,24.58
2023-07-03T01:52:56.765Z,24.94
2023-07-03T01:55:30.068Z,24.93
2023-07-03T01:58:04.931Z,25.00
2023-07-03T02:00:51.276Z,24.94
2023-07-03T02:03:27.203Z,25.02
2023-07-03T02:05:57.161Z,25.02
2023-07-03T02:08:25.910Z,25.10
2023-07-03T02:10:55.367Z,24.90
2023-07-03T02:13:22.698Z,25.01
2023-07-03T02:15:51.068Z,25.04
2023-07-03T02:18:22.099Z,25.05
2023-07-03T02:20:50.598Z,25.02
2023-07-03T02:23:18.466Z,25.08
2023-07-03T02:25:47.069Z,25.13
2023-07-03T02:28:14.295Z,25.06
2023-07-03T02:30:41.442Z,24.97
2023-07-03T02:33:12.262Z,25.08
2023-07-03T02:35:42.676Z,25.02
2023-07-03T02:38:11.682Z,25.16
2023-07-03T02:40:41.016Z,25.03
2023-07-03T02:43:08.149Z,25.23
2023-07-03T02:45:39.390Z,25.20
2023-07-03T02:48:09.836Z,24.71
2023-07-03T02:50:40.164Z,25.24
2023-07-03T02:53:08.699Z,25.03
2023-07-03T02:55:37.221Z,25.37
2023-07-03T02:58:05.430Z,25.30
2023-07-03T03:00:36.706Z,25.40
2023-07-03T03:03:04.329Z,25.37
2023-07-03T03:05:31.663Z,25.38
2023-07-03T03:07:59.074Z,25.32
2023-07-03T03:10:26.550Z,25.27
2023-07-03T03:12:53.659Z,25.18
2023-07-03T03:15:21.076Z,25.05
2023-07-03T03:17:48.307Z,24.94
2023-07-03T03:20:15.701Z,24.94
2023-07-03T03:22:43.051Z,24.69
2023-07-03T03:25:10.351Z,24.92
2023-07-03T03:27:37.477Z,24.95
2023-07-03T03:30:05.239Z,25.13
2023-07-03T03:32:36.384Z,24.90
2023-07-03T03:35:03.947Z,24.86
2023-07-03T03:37:31.176Z,24.68
2023-07-03T03:40:00.692Z,24.58
2023-07-03T03:42:27.900Z,24.64
2023-07-03T03:44:55.194Z,24.60
2023-07-03T03:47:24.447Z,24.80
2023-07-03T03:49:52.306Z,24.56
2023-07-03T03:52:19.537Z,24.38
2023-07-03T03:54:48.606Z,24.75
2023-07-03T03:57:15.873Z,24.68
2023-07-03T03:59:43.080Z,24.98
2023-07-03T04:02:10.497Z,25.03
2023-07-03T04:04:37.820Z,24.91
2023-07-03T04:07:05.441Z,24.64
2023-07-03T04:09:32.550Z,25.21
2023-07-03T04:11:59.618Z,25.14
2023-07-03T04:14:26.703Z,25.09
2023-07-03T04:16:54.912Z,24.26
2023-07-03T04:19:24.520Z,25.05
2023-07-03T04:21:51.584Z,24.63
2023-07-03T04:24:19.775Z,24.79
2023-07-03T04:26:46.963Z,25.06
2023-07-03T04:29:14.032Z,24.94
2023-07-03T04:31:41.195Z,24.95
2023-07-03T04:34:08.367Z,25.04
2023-07-03T04:36:35.708Z,24.96
2023-07-03T04:39:03.047Z,24.66
2023-07-03T04:41:30.200Z,24.99
2023-07-03T04:44:01.958Z,24.75
2023-07-03T04:46:29.574Z,24.82
2023-07-03T04:49:06.782Z,24.55
2023-07-03T04:51:34.174Z,24.80
2023-07-03T04:54:02.209Z,24.91
2023-07-03T04:56:30.382Z,24.88
2023-07-03T04:58:57.547Z,24.88
2023-07-03T05:01:25.600Z,24.93
2023-07-03T05:03:52.864Z,24.91
2023-07-03T05:06:20.161Z,25.02
2023-07-03T05:08:48.166Z,24.83
2023-07-03T05:11:15.460Z,24.96
2023-07-03T05:13:42.853Z,24.83
2023-07-03T05:16:10.195Z,24.98
2023-07-03T05:18:37.373Z,24.84
2023-07-03T05:21:07.393Z,25.17
2023-07-03T05:23:34.652Z,25.17
2023-07-03T05:26:01.746Z,25.22
2023-07-03T05:28:28.917Z,24.94
2023-07-03T05:30:57.107Z,25.27
2023-07-03T05:33:25.682Z,25.36
2023-07-03T05:35:54.594Z,25.39
2023-07-03T05:38:22.451Z,25.28
2023-07-03T05:40:51.551Z,25.48
2023-07-03T05:43:20.031Z,25.85
2023-07-03T05:45:50.913Z,25.60
2023-07-03T05:48:18.579Z,25.79
2023-07-03T05:50:46.072Z,25.33
2023-07-03T05:53:13.550Z,25.82
2023-07-03T05:55:40.664Z,26.00
2023-07-03T05:58:08.026Z,26.04
2023-07-03T06:00:35.259Z,26.09
2023-07-03T06:03:03.808Z,25.89
2023-07-03T06:05:31.143Z,26.13
2023-07-03T06:07:58.298Z,26.12
2023-07-03T06:10:25.521Z,26.16
2023-07-03T06:12:52.910Z,26.16
2023-07-03T06:15:20.198Z,26.10
2023-07-03T06:17:47.438Z,26.14
2023-07-03T06:20:15.254Z,26.31
2023-07-03T06:22:43.515Z,26.34
2023-07-03T06:25:11.484Z,26.37
2023-07-03T06:27:38.696Z,26.34
2023-07-03T06:30:06.848Z,25.68
2023-07-03T06:32:34.078Z,25.77
2023-07-03T06:35:04.272Z,26.45
2023-07-03T06:37:34.461Z,26.48
2023-07-03T06:40:01.877Z,26.48
2023-07-03T06:42:29.331Z,26.59
2023-07-03T06:45:00.826Z,26.52
2023-07-03T06:47:27.995Z,26.69
2023-07-03T06:49:55.114Z,26.77
2023-07-03T06:52:22.258Z,26.68
2023-07-03T06:54:49.432Z,26.81
2023-07-03T06:57:16.548Z,26.92
2023-07-03T06:59:43.701Z,26.97
2023-07-03T07:02:11.038Z,27.00
2023-07-03T07:04:38.367Z,26.96
2023-07-03T07:07:05.404Z,27.13
2023-07-03T07:09:32.556Z,27.30
2023-07-03T07:11:59.745Z,26.74
2023-07-03T07:14:26.796Z,27.03
2023-07-03T07:16:53.951Z,27.04
2023-07-03T07:19:21.085Z,27.52
2023-07-03T07:21:48.170Z,27.59
2023-07-03T07:24:21.450Z,27.57
2023-07-03T07:26:48.944Z,27.74
2023-07-03T07:29:16.207Z,27.63
2023-07-03T07:31:43.446Z,27.66
2023-07-03T07:34:11.987Z,27.50
2023-07-03T07:36:40.367Z,28.00
2023-07-03T07:39:08.603Z,28.09
2023-07-03T07:41:36.501Z,28.16
2023-07-03T07:44:03.878Z,28.23
2023-07-03T07:46:32.895Z,28.18
2023-07-03T07:49:01.642Z,28.37
2023-07-03T07:51:30.291Z,28.41
2023-07-03T07:53:58.666Z,28.45
2023-07-03T07:56:26.726Z,28.57
2023-07-03T07:58:53.890Z,28.67
2023-07-03T08:01:21.369Z,28.78
2023-07-03T08:03:49.260Z,28.69
2023-07-03T08:06:17.470Z,28.85
2023-07-03T08:08:44.656Z,28.83
2023-07-03T08:11:12.514Z,29.01
2023-07-03T08:13:41.493Z,29.06
2023-07-03T08:16:10.602Z,29.15
2023-07-03T08:18:38.106Z,29.14
2023-07-03T08:21:05.485Z,29.01
2023-07-03T08:23:32.741Z,29.17
2023-07-03T08:26:01.991Z,29.03
2023-07-03T08:28:29.735Z,29.27
2023-07-03T08:30:59.385Z,29.30
2023-07-03T08:33:26.990Z,29.22
2023-07-03T08:38:25.129Z,29.30
2023-07-03T08:41:00.477Z,29.42
2023-07-03T08:43:39.156Z,29.46
2023-07-03T08:46:21.153Z,29.33
2023-07-03T08:48:50.506Z,29.54
2023-07-03T08:51:19.998Z,29.22
2023-07-03T08:53:53.158Z,29.61
2023-07-03T08:56:28.017Z,29.52
2023-07-03T08:58:57.083Z,29.45
2023-07-03T09:02:01.431Z,29.67
2023-07-03T09:04:37.899Z,29.70
2023-07-03T09:07:18.465Z,29.67
2023-07-03T09:10:07.765Z,29.87
2023-07-03T09:12:41.338Z,29.95
2023-07-03T09:15:19.773Z,29.93
2023-07-03T09:17:48.594Z,29.79
2023-07-03T09:20:17.237Z,29.75
2023-07-03T09:22:59.347Z,29.80
2023-07-03T09:26:06.840Z,29.76
2023-07-03T09:28:39.782Z,29.82
2023-07-03T09:31:07.262Z,29.83
2023-07-03T09:33:34.648Z,29.48
2023-07-03T09:36:20.879Z,29.81
2023-07-03T09:38:48.739Z,29.89
2023-07-03T09:41:28.655Z,29.91
2023-07-03T09:43:56.684Z,30.02
2023-07-03T09:46:25.939Z,30.18
2023-07-03T09:48:53.315Z,30.07
2023-07-03T09:51:29.247Z,30.27
2023-07-03T09:53:58.613Z,30.21
2023-07-03T09:56:31.212Z,30.43
2023-07-03T09:59:05.269Z,30.14
2023-07-03T10:06:40.242Z,29.52
2023-07-03T10:12:22.856Z,30.17
2023-07-03T10:14:57.047Z,30.13
2023-07-03T10:17:54.840Z,30.36
2023-07-03T10:20:34.038Z,30.45
2023-07-03T10:23:04.053Z,30.08
2023-07-03T10:25:40.063Z,30.54
2023-07-03T10:28:15.939Z,30.62
2023-07-03T10:30:43.534Z,30.56
2023-07-03T10:33:19.985Z,30.61
2023-07-03T10:35:50.948Z,30.57
2023-07-03T10:38:36.467Z,30.71
2023-07-03T10:41:10.282Z,30.73
2023-07-03T10:43:45.012Z,30.60
2023-07-03T10:46:20.847Z,30.81
2023-07-03T10:48:49.962Z,30.84
2023-07-03T10:51:33.635Z,30.64
2023-07-03T10:54:19.088Z,30.91
2023-07-03T10:56:49.302Z,30.75
2023-07-03T10:59:21.074Z,30.83
2023-07-03T11:02:15.645Z,30.74
2023-07-03T11:05:09.867Z,30.78
2023-07-03T11:07:51.795Z,30.55
2023-07-03T11:10:24.986Z,30.98
2023-07-03T11:12:57.915Z,31.04
2023-07-03T11:15:29.126Z,30.93
2023-07-03T11:23:28.649Z,31.02
2023-07-03T11:28:53.612Z,31.06
2023-07-03T11:31:21.989Z,30.89
2023-07-03T11:36:50.235Z,31.04
2023-07-03T11:44:47.237Z,31.09
2023-07-03T11:47:32.300Z,30.90
2023-07-03T11:50:02.271Z,30.60
2023-07-03T11:52:42.462Z,31.12
2023-07-03T11:55:22.336Z,30.85
2023-07-03T11:58:14.308Z,31.16
2023-07-03T12:00:44.185Z,31.16
2023-07-03T12:03:12.352Z,30.93
2023-07-03T12:05:48.750Z,31.15
2023-07-03T12:08:19.344Z,31.30
2023-07-03T12:10:56.977Z,31.42
2023-07-03T12:13:42.926Z,31.53
2023-07-03T12:16:24.178Z,31.56
2023-07-03T12:19:11.764Z,31.50
2023-07-03T12:21:50.916Z,31.47
2023-07-03T12:24:31.712Z,31.51
2023-07-03T12:27:04.779Z,31.37
2023-07-03T12:29:35.001Z,31.45
2023-07-03T12:32:09.325Z,31.47
2023-07-03T12:34:41.699Z,31.08
2023-07-03T12:37:22.132Z,31.35
2023-07-03T12:39:50.318Z,31.21
2023-07-03T12:42:24.027Z,31.36
2023-07-03T12:44:52.443Z,31.29
2023-07-03T12:47:22.038Z,31.51
2023-07-03T12:49:57.031Z,31.54
2023-07-03T12:52:26.319Z,31.68
2023-07-03T12:55:05.601Z,31.66
2023-07-03T12:57:40.674Z,31.66
2023-07-03T13:00:16.408Z,31.69
2023-07-03T13:02:44.552Z,31.70
2023-07-03T13:05:15.067Z,31.73
2023-07-03T13:07:45.027Z,31.75
2023-07-03T13:10:19.941Z,31.81
2023-07-03T13:13:02.992Z,31.81
2023-07-03T13:15:37.624Z,31.87
2023-07-03T13:18:09.037Z,31.96
2023-07-03T13:20:36.528Z,31.85
2023-07-03T13:23:06.670Z,32.02
2023-07-03T13:25:41.029Z,32.05
2023-07-03T13:28:22.021Z,32.01
2023-07-03T13:31:19.858Z,31.97
2023-07-03T13:34:16.301Z,31.97
2023-07-03T13:36:47.088Z,31.88
2023-07-03T13:39:20.152Z,31.98
2023-07-03T13:41:48.089Z,31.96
2023-07-03T13:44:20.530Z,32.02
2023-07-03T13:46:49.640Z,32.04
2023-07-03T13:49:18.115Z,31.90
2023-07-03T13:51:47.173Z,31.96
2023-07-03T13:54:16.149Z,32.03
2023-07-03T13:56:44.450Z,32.11
2023-07-03T13:59:12.712Z,32.13
2023-07-03T14:01:41.917Z,32.12
2023-07-03T14:04:09.879Z,32.08
2023-07-03T14:06:37.215Z,32.16
2023-07-03T14:09:05.606Z,32.19
2023-07-03T14:11:33.429Z,32.10
2023-07-03T14:14:00.718Z,32.08
2023-07-03T14:16:29.350Z,31.46
2023-07-03T14:18:56.872Z,31.47
2023-07-03T14:21:25.472Z,32.13
2023-07-03T14:23:52.783Z,31.59
2023-07-03T14:26:20.285Z,32.18
2023-07-03T14:28:47.496Z,32.16
2023-07-03T14:31:17.478Z,32.28
2023-07-03T14:33:45.574Z,32.21
2023-07-03T14:36:13.139Z,32.23
2023-07-03T14:38:40.639Z,31.90
2023-07-03T14:41:08.301Z,32.06
2023-07-03T14:43:35.578Z,31.62
2023-07-03T14:46:02.859Z,32.13
2023-07-03T14:48:30.360Z,31.89
2023-07-03T14:50:57.677Z,32.00
2023-07-03T14:53:25.081Z,32.10
2023-07-03T14:55:56.842Z,32.21
2023-07-03T14:58:24.469Z,31.99
2023-07-03T15:00:53.186Z,31.83
2023-07-03T15:03:20.537Z,31.79
2023-07-03T15:05:48.260Z,32.01
2023-07-03T15:08:16.441Z,32.04
2023-07-03T15:10:43.774Z,32.08
2023-07-03T15:13:11.238Z,32.11
2023-07-03T15:15:38.456Z,31.47
2023-07-03T15:18:05.982Z,31.56
2023-07-03T15:20:39.347Z,31.92
2023-07-03T15:23:07.508Z,31.77
2023-07-03T15:25:35.476Z,31.95
2023-07-03T15:28:02.564Z,31.94
2023-07-03T15:30:29.740Z,31.78
2023-07-03T15:32:56.952Z,31.86
2023-07-03T15:35:24.121Z,31.65
2023-07-03T15:37:52.293Z,31.71
2023-07-03T15:40:19.518Z,31.71
2023-07-03T15:42:47.031Z,31.49
2023-07-03T15:45:14.546Z,30.77
2023-07-03T15:47:45.042Z,31.60
2023-07-03T15:50:12.300Z,31.57
2023-07-03T15:52:39.418Z,31.56
2023-07-03T15:55:07.217Z,31.47
2023-07-03T15:57:34.517Z,30.80
2023-07-03T16:00:01.711Z,30.82
2023-07-03T16:02:32.846Z,31.25
2023-07-03T16:05:00.044Z,31.38
2023-07-03T16:07:27.229Z,31.26
2023-07-03T16:09:54.300Z,31.21
2023-07-03T16:12:21.448Z,31.08
2023-07-03T16:14:49.086Z,31.18
2023-07-03T16:17:16.594Z,31.51
2023-07-03T16:20:03.963Z,31.50
2023-07-03T16:22:31.161Z,31.39
2023-07-03T16:24:58.339Z,30.78
2023-07-03T16:27:25.383Z,30.90
2023-07-03T16:29:52.567Z,31.41
2023-07-03T16:32:19.718Z,31.44
2023-07-03T16:34:47.644Z,30.96
2023-07-03T16:37:14.774Z,31.57
2023-07-03T16:39:42.000Z,31.43
2023-07-03T16:42:09.173Z,31.27
2023-07-03T16:44:36.299Z,31.30
2023-07-03T16:47:03.768Z,31.35
2023-07-03T16:49:30.924Z,31.01
2023-07-03T16:51:58.078Z,30.33
2023-07-03T16:54:25.215Z,31.26
2023-07-03T16:56:53.406Z,31.32
2023-07-03T16:59:20.554Z,31.04
2023-07-03T17:01:48.806Z,31.29
2023-07-03T17:04:16.033Z,31.26
2023-07-03T17:06:43.201Z,31.20
2023-07-03T17:09:10.430Z,31.16
2023-07-03T17:11:37.641Z,31.10
2023-07-03T17:14:05.633Z,31.04
2023-07-03T17:16:34.027Z,30.54
2023-07-03T17:19:01.300Z,30.27
2023-07-03T17:21:30.090Z,30.85
2023-07-03T17:24:02.852Z,30.50
2023-07-03T17:26:31.134Z,30.37
2023-07-03T17:28:58.341Z,30.70
2023-07-03T17:31:26.487Z,30.41
2023-07-03T17:33:57.249Z,30.54
2023-07-03T17:36:25.125Z,30.27
2023-07-03T17:38:52.679Z,30.38
2023-07-03T17:41:20.643Z,30.35
2023-07-03T17:43:48.720Z,30.00
2023-07-03T17:46:17.172Z,29.91
2023-07-03T17:48:45.015Z,29.92
2023-07-03T17:51:12.931Z,30.31
2023-07-03T17:53:41.709Z,30.16
2023-07-03T17:56:09.179Z,30.17
2023-07-03T17:58:36.334Z,29.42
2023-07-03T18:01:04.387Z,30.08
2023-07-03T18:03:33.709Z,29.92
2023-07-03T18:06:02.059Z,29.99
2023-07-03T18:08:29.368Z,29.41
2023-07-03T18:10:56.719Z,29.94
2023-07-03T18:13:24.005Z,29.92
2023-07-03T18:15:51.311Z,29.91
2023-07-03T18:18:21.082Z,29.27
2023-07-03T18:20:48.590Z,29.82
2023-07-03T18:23:16.154Z,29.36
2023-07-03T18:25:43.342Z,29.77
2023-07-03T18:28:10.608Z,29.73
2023-07-03T18:30:37.883Z,28.86
2023-07-03T18:33:05.148Z,29.76
2023-07-03T18:35:36.835Z,29.43
2023-07-03T18:38:04.465Z,29.70
2023-07-03T18:40:31.788Z,29.59
2023-07-03T18:42:58.943Z,29.64
2023-07-03T18:45:26.174Z,29.17
2023-07-03T18:47:53.539Z,29.49
2023-07-03T18:50:21.004Z,29.42
2023-07-03T18:52:48.127Z,28.78
2023-07-03T18:55:15.355Z,29.29
2023-07-03T18:57:44.337Z,28.59
2023-07-03T19:00:13.556Z,29.08
2023-07-03T19:02:40.901Z,29.02
2023-07-03T19:05:08.670Z,29.09
2023-07-03T19:07:35.861Z,28.36
2023-07-03T19:10:16.829Z,29.15
2023-07-03T19:12:45.568Z,29.21
2023-07-03T19:15:12.879Z,29.19
2023-07-03T19:17:40.388Z,28.49
2023-07-03T19:20:08.154Z,29.07
2023-07-03T19:22:35.970Z,29.08
2023-07-03T19:25:03.267Z,29.08
2023-07-03T19:27:30.467Z,28.67
2023-07-03T19:29:57.752Z,28.10
2023-07-03T19:32:25.226Z,29.18
2023-07-03T19:34:53.331Z,28.92
2023-07-03T19:37:20.628Z,29.17
2023-07-03T19:39:47.742Z,28.58
2023-07-03T19:42:14.895Z,29.15
2023-07-03T19:44:42.055Z,29.09
2023-07-03T19:47:09.465Z,28.54
2023-07-03T19:49:36.938Z,28.37
2023-07-03T19:52:04.545Z,28.92
2023-07-03T19:54:31.881Z,28.89
2023-07-03T19:56:59.055Z,28.33
2023-07-03T19:59:26.248Z,29.02
2023-07-03T20:01:53.733Z,28.86
2023-07-03T20:04:22.223Z,28.59
2023-07-03T20:06:49.675Z,28.96
2023-07-03T20:09:16.828Z,28.91
2023-07-03T20:11:44.842Z,28.69
2023-07-03T20:14:12.110Z,28.76
2023-07-03T20:16:41.825Z,28.65
2023-07-03T20:19:11.077Z,28.68
2023-07-03T20:21:38.426Z,28.54
2023-07-03T20:24:05.972Z,28.42
2023-07-03T20:26:33.422Z,28.05
2023-07-03T20:29:00.540Z,28.01
2023-07-03T20:31:27.828Z,28.07
2023-07-03T20:33:56.623Z,28.09
2023-07-03T20:36:23.840Z,28.15
2023-07-03T20:38:51.089Z,27.79
2023-07-03T20:41:18.295Z,28.08
2023-07-03T20:43:45.688Z,28.09
2023-07-03T20:46:15.356Z,27.88
2023-07-03T20:48:43.107Z,27.93
2023-07-03T20:51:22.064Z,27.90
2023-07-03T20:53:52.125Z,27.75
2023-07-03T20:56:21.966Z,27.73
2023-07-03T20:58:53.309Z,27.87
2023-07-03T21:01:28.856Z,27.81
2023-07-03T21:03:59.796Z,27.68
2023-07-03T21:06:30.167Z,27.75
2023-07-03T21:08:59.310Z,27.72
2023-07-03T21:11:29.417Z,27.74
2023-07-03T21:14:00.975Z,27.72
2023-07-03T21:16:28.205Z,27.70
2023-07-03T21:18:55.564Z,27.11
2023-07-03T21:21:33.880Z,26.94
2023-07-03T21:24:04.091Z,27.40
2023-07-03T21:26:31.843Z,27.11
2023-07-03T21:28:59.680Z,26.78
2023-07-03T21:31:30.644Z,26.68
2023-07-03T21:33:57.928Z,26.56
2023-07-03T21:36:27.626Z,26.63
2023-07-03T21:38:57.045Z,26.65
2023-07-03T21:41:32.009Z,26.84
2023-07-03T21:44:02.167Z,26.89
2023-07-03T21:46:31.990Z,26.96
2023-07-03T21:48:59.511Z,26.84
2023-07-03T21:51:28.770Z,26.97
2023-07-03T21:53:56.135Z,26.68
2023-07-03T21:56:28.660Z,26.44
2023-07-03T21:58:58.019Z,25.77
2023-07-03T22:01:29.398Z,26.42
2023-07-03T22:03:57.722Z,26.43
2023-07-03T22:06:26.835Z,26.53
2023-07-03T22:08:54.871Z,26.39
2023-07-03T22:11:23.114Z,26.26
2023-07-03T22:13:50.575Z,26.12
2023-07-03T22:16:18.691Z,26.02
2023-07-03T22:18:46.740Z,26.14
2023-07-03T22:21:15.737Z,26.30
2023-07-03T22:23:45.444Z,26.35
2023-07-03T22:26:12.639Z,26.39
2023-07-03T22:28:39.761Z,26.43
2023-07-03T22:31:06.887Z,26.64
2023-07-03T22:33:34.327Z,26.47
2023-07-03T22:36:01.509Z,26.77
2023-07-03T22:38:28.694Z,26.84
2023-07-03T22:40:55.854Z,26.73
2023-07-03T22:43:23.082Z,26.89
2023-07-03T22:45:50.409Z,26.92
2023-07-03T22:48:17.863Z,26.92
2023-07-03T22:50:54.101Z,26.90
2023-07-03T22:53:21.886Z,26.92
2023-07-03T22:55:48.983Z,26.48
2023-07-03T22:58:16.282Z,26.94
2023-07-03T23:00:43.488Z,26.98
2023-07-03T23:03:10.587Z,26.94
2023-07-03T23:05:48.244Z,26.89
2023-07-03T23:08:16.464Z,26.83
2023-07-03T23:10:52.369Z,26.89
2023-07-03T23:13:24.852Z,26.93
2023-07-03T23:16:00.430Z,26.57
2023-07-03T23:18:30.888Z,26.45
2023-07-03T23:21:03.814Z,26.89
2023-07-03T23:23:33.826Z,26.79
2023-07-03T23:26:07.019Z,26.50
2023-07-03T23:28:36.236Z,26.41
2023-07-03T23:31:06.470Z,26.35
2023-07-03T23:33:34.459Z,26.51
2023-07-03T23:36:06.180Z,25.94
2023-07-03T23:38:34.607Z,25.40
2023-07-03T23:41:04.633Z,26.44
2023-07-03T23:43:33.212Z,26.40
2023-07-03T23:46:00.378Z,25.99
2023-07-03T23:48:28.407Z,26.29
2023-07-03T23:50:58.169Z,26.22
2023-07-03T23:53:25.895Z,25.64
2023-07-03T23:55:54.035Z,26.21
2023-07-03T23:58:24.433Z,26.20
